createdAt,value
2022-08-02T00:00:21.070Z,16.30
2022-08-02T00:02:53.547Z,16.22
2022-08-02T00:05:26.886Z,16.21
2022-08-02T00:07:59.253Z,16.15
2022-08-02T00:10:31.759Z,16.08
2022-08-02T00:13:04.294Z,16.04
2022-08-02T00:15:36.654Z,16.07
2022-08-02T00:18:09.078Z,15.97
2022-08-02T00:20:42.134Z,15.97
2022-08-02T00:23:14.666Z,15.89
2022-08-02T00:25:54.863Z,15.95
2022-08-02T00:28:29.148Z,15.94
2022-08-02T00:31:01.598Z,15.65
2022-08-02T00:34:27.087Z,15.60
2022-08-02T00:36:27.205Z,15.42
2022-08-02T00:38:59.599Z,15.54
2022-08-02T00:41:32.062Z,15.60
2022-08-02T00:44:04.836Z,15.60
2022-08-02T00:46:37.267Z,15.51
2022-08-02T00:49:09.903Z,15.54
2022-08-02T00:51:43.046Z,15.50
2022-08-02T00:54:15.487Z,15.56
2022-08-02T00:56:50.134Z,15.49
2022-08-02T00:59:23.649Z,15.49
2022-08-02T01:01:58.298Z,15.28
2022-08-02T01:04:40.647Z,15.29
2022-08-02T01:07:14.123Z,15.21
2022-08-02T01:09:46.812Z,15.23
2022-08-02T01:12:19.208Z,15.16
2022-08-02T01:14:53.374Z,15.23
2022-08-02T01:17:32.211Z,15.27
2022-08-02T01:20:11.919Z,15.13
2022-08-02T01:23:05.359Z,15.10
2022-08-02T01:26:04.366Z,15.15
2022-08-02T01:28:43.198Z,15.08
2022-08-02T01:31:20.910Z,15.09
2022-08-02T01:34:02.382Z,15.09
2022-08-02T01:36:39.047Z,15.02
2022-08-02T01:39:26.930Z,15.00
2022-08-02T01:42:01.861Z,14.85
2022-08-02T01:44:38.489Z,14.93
2022-08-02T01:47:17.395Z,14.98
2022-08-02T01:49:54.214Z,14.97
2022-08-02T01:52:29.206Z,14.97
2022-08-02T01:55:06.839Z,15.01
2022-08-02T01:57:48.570Z,15.00
2022-08-02T02:00:24.077Z,14.99
2022-08-02T02:02:58.780Z,14.98
2022-08-02T02:05:33.340Z,14.80
2022-08-02T02:08:09.243Z,14.80
2022-08-02T02:10:44.991Z,14.76
2022-08-02T02:13:19.307Z,14.62
2022-08-02T02:15:54.481Z,14.47
2022-08-02T02:18:30.478Z,14.59
2022-08-02T02:21:02.999Z,14.69
2022-08-02T02:23:35.886Z,14.60
2022-08-02T02:26:13.395Z,14.57
2022-08-02T02:28:47.606Z,14.58
2022-08-02T02:31:21.294Z,14.58
2022-08-02T02:34:01.730Z,14.62
2022-08-02T02:36:36.831Z,14.61
2022-08-02T02:39:14.110Z,14.59
2022-08-02T02:41:48.703Z,14.63
2022-08-02T02:44:23.207Z,14.57
2022-08-02T02:46:57.965Z,14.28
2022-08-02T02:49:32.621Z,14.30
2022-08-02T02:52:06.788Z,14.34
2022-08-02T02:54:39.796Z,14.26
2022-08-02T02:57:13.599Z,14.23
2022-08-02T02:59:49.413Z,14.09
2022-08-02T03:02:23.320Z,14.08
2022-08-02T03:04:58.327Z,14.18
2022-08-02T03:07:32.892Z,14.19
2022-08-02T03:10:07.589Z,14.14
2022-08-02T03:12:40.107Z,14.06
2022-08-02T03:15:13.821Z,14.13
2022-08-02T03:17:47.181Z,14.10
2022-08-02T03:20:21.975Z,14.13
2022-08-02T03:22:54.363Z,14.08
2022-08-02T03:25:26.780Z,14.08
2022-08-02T03:27:59.155Z,14.02
2022-08-02T03:30:31.554Z,13.97
2022-08-02T03:33:04.686Z,13.90
2022-08-02T03:35:38.445Z,13.92
2022-08-02T03:38:12.389Z,14.01
2022-08-02T03:40:46.057Z,13.97
2022-08-02T03:43:18.880Z,13.85
2022-08-02T03:45:52.500Z,13.81
2022-08-02T03:48:33.923Z,13.81
2022-08-02T03:51:07.807Z,13.85
2022-08-02T03:53:40.894Z,13.94
2022-08-02T03:56:14.458Z,14.00
2022-08-02T03:58:49.352Z,13.93
2022-08-02T04:01:21.995Z,13.95
2022-08-02T04:03:55.113Z,13.98
2022-08-02T04:06:28.447Z,14.01
2022-08-02T04:09:00.936Z,14.04
2022-08-02T04:11:33.339Z,14.06
2022-08-02T04:14:07.801Z,14.06
2022-08-02T04:16:44.935Z,14.06
2022-08-02T04:19:25.299Z,14.10
2022-08-02T04:21:59.608Z,14.06
2022-08-02T04:24:37.868Z,14.12
2022-08-02T04:27:49.171Z,14.16
2022-08-02T04:30:05.285Z,14.10
2022-08-02T04:32:38.887Z,14.12
2022-08-02T04:35:20.504Z,14.13
2022-08-02T04:38:09.320Z,14.10
2022-08-02T04:40:49.843Z,14.20
2022-08-02T04:43:22.952Z,14.15
2022-08-02T04:45:55.521Z,14.17
2022-08-02T04:48:28.167Z,14.22
2022-08-02T04:51:01.259Z,14.22
2022-08-02T04:53:33.909Z,14.33
2022-08-02T04:56:06.278Z,14.44
2022-08-02T04:58:40.447Z,14.53
2022-08-02T05:01:13.391Z,14.61
2022-08-02T05:03:46.801Z,14.66
2022-08-02T05:06:20.655Z,14.74
2022-08-02T05:08:53.747Z,14.86
2022-08-02T05:11:36.254Z,14.79
2022-08-02T05:14:09.223Z,14.97
2022-08-02T05:16:41.606Z,15.14
2022-08-02T05:19:14.059Z,15.28
2022-08-02T05:21:47.080Z,15.42
2022-08-02T05:24:19.514Z,15.47
2022-08-02T05:26:51.919Z,15.59
2022-08-02T05:29:24.319Z,15.77
2022-08-02T05:31:56.738Z,16.00
2022-08-02T05:34:29.161Z,16.20
2022-08-02T05:37:02.195Z,16.37
2022-08-02T05:39:34.780Z,16.58
2022-08-02T05:42:09.574Z,16.84
2022-08-02T05:44:42.187Z,17.04
2022-08-02T05:47:14.614Z,17.25
2022-08-02T05:49:46.982Z,17.45
2022-08-02T05:52:24.214Z,17.68
2022-08-02T05:55:06.840Z,17.95
2022-08-02T05:57:48.710Z,18.19
2022-08-02T06:00:21.844Z,18.36
2022-08-02T06:03:16.135Z,18.55
2022-08-02T06:05:58.801Z,18.88
2022-08-02T06:08:37.396Z,19.11
2022-08-02T06:11:12.411Z,19.34
2022-08-02T06:13:45.982Z,19.58
2022-08-02T06:16:32.669Z,19.80
2022-08-02T06:19:05.789Z,20.01
2022-08-02T06:22:42.029Z,20.23
2022-08-02T06:24:35.023Z,20.45
2022-08-02T06:27:07.722Z,20.68
2022-08-02T06:29:40.931Z,20.81
2022-08-02T06:32:17.375Z,21.04
2022-08-02T06:34:49.827Z,21.18
2022-08-02T06:37:27.383Z,21.40
2022-08-02T06:40:06.446Z,21.45
2022-08-02T06:42:47.862Z,21.66
2022-08-02T06:45:20.322Z,21.97
2022-08-02T06:47:53.934Z,22.17
2022-08-02T06:50:26.687Z,22.37
2022-08-02T06:52:59.892Z,22.30
2022-08-02T06:55:33.082Z,22.55
2022-08-02T06:58:16.243Z,22.75
2022-08-02T07:00:48.846Z,22.82
2022-08-02T07:03:21.267Z,23.03
2022-08-02T07:05:54.323Z,23.17
2022-08-02T07:08:30.998Z,23.35
2022-08-02T07:11:05.801Z,23.47
2022-08-02T07:13:39.962Z,23.57
2022-08-02T07:16:12.505Z,23.70
2022-08-02T07:18:44.920Z,23.73
2022-08-02T07:21:17.327Z,23.78
2022-08-02T07:24:09.711Z,23.85
2022-08-02T07:27:08.551Z,24.16
2022-08-02T07:29:45.918Z,24.48
2022-08-02T07:32:21.198Z,24.69
2022-08-02T07:34:55.469Z,24.68
2022-08-02T07:37:51.182Z,24.35
2022-08-02T07:40:23.603Z,24.61
2022-08-02T07:43:03.474Z,24.86
2022-08-02T07:45:55.785Z,24.99
2022-08-02T07:48:29.032Z,25.28
2022-08-02T07:51:01.408Z,25.16
2022-08-02T07:53:50.625Z,25.29
2022-08-02T07:56:23.968Z,25.56
2022-08-02T07:58:57.079Z,25.17
2022-08-02T08:01:29.578Z,25.42
2022-08-02T08:04:01.998Z,25.44
2022-08-02T08:06:34.633Z,25.74
2022-08-02T08:09:07.080Z,25.37
2022-08-02T08:11:39.527Z,25.87
2022-08-02T08:14:16.675Z,26.02
2022-08-02T08:16:49.450Z,26.42
2022-08-02T08:19:21.867Z,26.73
2022-08-02T08:22:14.955Z,26.83
2022-08-02T08:24:47.935Z,26.76
2022-08-02T08:27:21.989Z,26.79
2022-08-02T08:29:55.114Z,26.68
2022-08-02T08:32:27.496Z,26.57
2022-08-02T08:34:59.960Z,26.36
2022-08-02T08:37:34.215Z,26.78
2022-08-02T08:40:07.836Z,26.73
2022-08-02T08:42:40.889Z,27.10
2022-08-02T08:45:14.031Z,27.35
2022-08-02T08:47:52.622Z,27.56
2022-08-02T08:50:26.617Z,27.59
2022-08-02T08:53:03.578Z,27.61
2022-08-02T08:55:37.097Z,27.35
2022-08-02T08:58:11.296Z,27.47
2022-08-02T09:00:44.469Z,27.85
2022-08-02T09:03:17.012Z,27.85
2022-08-02T09:05:49.760Z,28.05
2022-08-02T09:08:22.158Z,27.94
2022-08-02T09:10:54.567Z,28.11
2022-08-02T09:13:31.208Z,28.37
2022-08-02T09:16:28.803Z,28.56
2022-08-02T09:19:15.843Z,28.83
2022-08-02T09:21:49.739Z,29.11
2022-08-02T09:24:23.228Z,29.34
2022-08-02T09:26:55.776Z,29.23
2022-08-02T09:29:28.254Z,29.00
2022-08-02T09:32:03.989Z,29.24
2022-08-02T09:34:47.642Z,29.08
2022-08-02T09:37:24.455Z,29.05
2022-08-02T09:39:59.999Z,29.04
2022-08-02T09:42:32.483Z,29.01
2022-08-02T09:45:05.957Z,28.79
2022-08-02T09:47:48.892Z,28.52
2022-08-02T09:50:21.283Z,29.06
2022-08-02T09:52:55.774Z,29.35
2022-08-02T09:55:28.320Z,28.91
2022-08-02T09:58:17.214Z,29.06
2022-08-02T10:00:54.699Z,29.06
2022-08-02T10:03:31.936Z,29.13
2022-08-02T10:06:07.803Z,29.43
2022-08-02T10:08:40.331Z,29.65
2022-08-02T10:11:13.055Z,29.48
2022-08-02T10:13:46.188Z,29.54
2022-08-02T10:16:22.856Z,29.28
2022-08-02T10:18:59.220Z,29.02
2022-08-02T10:21:42.711Z,28.98
2022-08-02T10:24:23.096Z,29.27
2022-08-02T10:26:58.504Z,29.26
2022-08-02T10:29:44.805Z,29.75
2022-08-02T10:32:32.837Z,29.77
2022-08-02T10:35:19.685Z,29.65
2022-08-02T10:38:02.739Z,29.66
2022-08-02T10:40:44.379Z,29.62
2022-08-02T10:43:42.440Z,29.34
2022-08-02T10:46:23.229Z,29.79
2022-08-02T10:49:36.661Z,30.04
2022-08-02T10:52:08.731Z,29.70
2022-08-02T10:54:43.444Z,30.08
2022-08-02T10:57:26.799Z,29.74
2022-08-02T11:00:09.452Z,29.98
2022-08-02T11:02:46.057Z,30.17
2022-08-02T11:05:26.891Z,30.10
2022-08-02T11:08:18.025Z,30.49
2022-08-02T11:10:50.456Z,30.97
2022-08-02T11:13:25.612Z,30.87
2022-08-02T11:16:00.971Z,31.04
2022-08-02T11:19:06.637Z,30.98
2022-08-02T11:21:39.453Z,31.20
2022-08-02T11:24:28.040Z,31.15
2022-08-02T11:27:01.840Z,31.20
2022-08-02T11:29:38.111Z,31.32
2022-08-02T11:32:19.543Z,31.25
2022-08-02T11:34:53.947Z,31.11
2022-08-02T11:37:29.194Z,30.62
2022-08-02T11:40:03.719Z,30.65
2022-08-02T11:42:39.169Z,30.65
2022-08-02T11:45:12.709Z,30.74
2022-08-02T11:47:54.702Z,30.78
2022-08-02T11:50:30.392Z,30.81
2022-08-02T11:53:12.919Z,30.46
2022-08-02T11:55:45.967Z,30.20
2022-08-02T11:58:18.404Z,30.33
2022-08-02T12:00:53.068Z,30.22
2022-08-02T12:03:25.668Z,30.77
2022-08-02T12:06:05.866Z,31.03
2022-08-02T12:08:39.450Z,31.12
2022-08-02T12:11:12.506Z,31.13
2022-08-02T12:13:45.430Z,30.93
2022-08-02T12:16:52.839Z,30.95
2022-08-02T12:19:27.076Z,30.48
2022-08-02T12:22:12.265Z,30.64
2022-08-02T12:24:47.781Z,31.03
2022-08-02T12:27:31.823Z,31.28
2022-08-02T12:30:07.336Z,31.47
2022-08-02T12:32:40.190Z,31.56
2022-08-02T12:35:26.134Z,31.56
2022-08-02T12:38:09.315Z,31.68
2022-08-02T12:40:41.856Z,31.17
2022-08-02T12:43:20.231Z,31.25
2022-08-02T12:45:54.144Z,31.27
2022-08-02T12:48:38.596Z,31.39
2022-08-02T12:51:20.082Z,31.53
2022-08-02T12:53:59.928Z,31.25
2022-08-02T12:56:36.944Z,30.67
2022-08-02T12:59:11.462Z,30.67
2022-08-02T13:01:45.055Z,30.75
2022-08-02T13:04:17.498Z,30.54
2022-08-02T13:06:49.872Z,30.36
2022-08-02T13:09:27.178Z,30.17
2022-08-02T13:12:01.595Z,29.88
2022-08-02T13:14:40.369Z,29.81
2022-08-02T13:17:14.787Z,29.27
2022-08-02T13:19:47.208Z,29.01
2022-08-02T13:22:24.327Z,28.83
2022-08-02T13:25:01.494Z,28.94
2022-08-02T13:27:34.698Z,28.90
2022-08-02T13:30:08.731Z,28.68
2022-08-02T13:32:41.179Z,28.70
2022-08-02T13:35:18.201Z,28.79
2022-08-02T13:37:50.777Z,28.62
2022-08-02T13:40:23.466Z,28.44
2022-08-02T13:42:56.947Z,28.30
2022-08-02T13:45:30.007Z,28.41
2022-08-02T13:48:03.742Z,28.30
2022-08-02T13:50:37.935Z,28.28
2022-08-02T13:53:10.343Z,28.48
2022-08-02T13:55:43.421Z,28.63
2022-08-02T13:58:16.119Z,28.73
2022-08-02T14:00:49.158Z,28.81
2022-08-02T14:03:21.594Z,28.97
2022-08-02T14:05:58.810Z,29.00
2022-08-02T14:08:31.233Z,28.85
2022-08-02T14:11:04.148Z,28.87
2022-08-02T14:13:36.572Z,28.74
2022-08-02T14:16:10.111Z,28.70
2022-08-02T14:18:42.569Z,28.54
2022-08-02T14:21:15.287Z,28.35
2022-08-02T14:23:50.804Z,28.27
2022-08-02T14:26:27.327Z,28.12
2022-08-02T14:29:00.430Z,27.86
2022-08-02T14:31:33.551Z,27.88
2022-08-02T14:34:06.035Z,27.76
2022-08-02T14:36:38.424Z,27.76
2022-08-02T14:39:11.351Z,27.81
2022-08-02T14:42:00.038Z,27.59
2022-08-02T14:44:33.319Z,27.68
2022-08-02T14:47:06.507Z,27.63
2022-08-02T14:49:41.838Z,27.56
2022-08-02T14:52:16.363Z,27.57
2022-08-02T14:54:48.892Z,27.51
2022-08-02T14:57:21.465Z,27.57
2022-08-02T14:59:59.800Z,27.59
2022-08-02T15:02:33.198Z,27.57
2022-08-02T15:05:05.972Z,27.55
2022-08-02T15:07:43.333Z,27.57
2022-08-02T15:10:18.987Z,27.64
2022-08-02T15:12:51.463Z,27.59
2022-08-02T15:15:25.418Z,27.61
2022-08-02T15:17:58.530Z,27.61
2022-08-02T15:20:34.076Z,27.63
2022-08-02T15:23:07.361Z,27.66
2022-08-02T15:25:41.950Z,27.70
2022-08-02T15:28:14.361Z,27.51
2022-08-02T15:30:46.758Z,27.53
2022-08-02T15:33:19.754Z,27.54
2022-08-02T15:35:52.191Z,27.47
2022-08-02T15:38:24.599Z,27.47
2022-08-02T15:40:57.025Z,27.46
2022-08-02T15:43:29.691Z,27.46
2022-08-02T15:46:02.083Z,27.40
2022-08-02T15:48:35.389Z,27.37
2022-08-02T15:51:07.808Z,27.28
2022-08-02T15:53:40.209Z,27.24
2022-08-02T15:56:13.091Z,27.20
2022-08-02T15:58:45.650Z,27.13
2022-08-02T16:01:24.514Z,27.06
2022-08-02T16:03:57.640Z,27.00
2022-08-02T16:06:30.177Z,27.02
2022-08-02T16:09:03.413Z,26.98
2022-08-02T16:11:35.944Z,26.89
2022-08-02T16:14:08.872Z,26.86
2022-08-02T16:16:41.279Z,26.85
2022-08-02T16:19:47.159Z,26.80
2022-08-02T16:22:07.303Z,26.77
2022-08-02T16:24:43.378Z,26.73
2022-08-02T16:27:15.863Z,26.62
2022-08-02T16:29:48.277Z,26.54
2022-08-02T16:32:20.634Z,26.45
2022-08-02T16:35:07.722Z,26.34
2022-08-02T16:37:51.781Z,26.21
2022-08-02T16:40:25.315Z,26.12
2022-08-02T16:42:57.724Z,26.01
2022-08-02T16:45:32.682Z,25.98
2022-08-02T16:48:07.067Z,25.89
2022-08-02T16:50:42.346Z,25.82
2022-08-02T16:53:36.543Z,25.73
2022-08-02T16:56:09.995Z,25.66
2022-08-02T16:58:44.868Z,25.64
2022-08-02T17:01:17.838Z,25.60
2022-08-02T17:03:57.946Z,25.51
2022-08-02T17:06:31.196Z,25.42
2022-08-02T17:09:03.743Z,25.32
2022-08-02T17:11:41.447Z,25.22
2022-08-02T17:14:18.118Z,25.13
2022-08-02T17:16:52.703Z,25.11
2022-08-02T17:19:25.050Z,25.05
2022-08-02T17:21:58.181Z,24.97
2022-08-02T17:24:30.552Z,24.87
2022-08-02T17:27:03.902Z,24.80
2022-08-02T17:29:37.703Z,24.78
2022-08-02T17:32:14.921Z,24.70
2022-08-02T17:34:59.662Z,24.62
2022-08-02T17:37:33.415Z,24.52
2022-08-02T17:40:08.719Z,24.47
2022-08-02T17:42:42.040Z,24.38
2022-08-02T17:45:16.431Z,24.39
2022-08-02T17:48:03.839Z,24.32
2022-08-02T17:50:37.591Z,24.27
2022-08-02T17:53:11.464Z,24.22
2022-08-02T17:55:45.071Z,24.23
2022-08-02T17:58:23.535Z,24.17
2022-08-02T18:01:08.903Z,24.06
2022-08-02T18:03:56.695Z,23.94
2022-08-02T18:06:30.512Z,23.85
2022-08-02T18:09:04.096Z,23.65
2022-08-02T18:11:52.055Z,23.54
2022-08-02T18:14:26.420Z,23.40
2022-08-02T18:16:59.163Z,23.27
2022-08-02T18:19:33.060Z,23.15
2022-08-02T18:22:15.734Z,23.02
2022-08-02T18:24:49.015Z,22.95
2022-08-02T18:27:22.530Z,22.83
2022-08-02T18:30:00.188Z,22.73
2022-08-02T18:33:54.249Z,22.62
2022-08-02T18:35:29.608Z,22.57
2022-08-02T18:38:03.537Z,22.45
2022-08-02T18:40:37.044Z,22.34
2022-08-02T18:43:09.563Z,22.21
2022-08-02T18:46:06.489Z,22.11
2022-08-02T18:48:44.169Z,21.98
2022-08-02T18:51:19.571Z,21.92
2022-08-02T18:53:53.222Z,21.80
2022-08-02T18:56:26.314Z,21.70
2022-08-02T18:59:04.803Z,21.62
2022-08-02T19:01:48.590Z,21.51
2022-08-02T19:04:27.524Z,21.42
2022-08-02T19:07:07.001Z,21.36
2022-08-02T19:09:40.635Z,21.18
2022-08-02T19:12:15.938Z,20.97
2022-08-02T19:15:00.916Z,21.11
2022-08-02T19:17:53.745Z,21.04
2022-08-02T19:20:26.700Z,20.93
2022-08-02T19:23:04.765Z,20.97
2022-08-02T19:25:38.975Z,20.90
2022-08-02T19:28:12.123Z,20.85
2022-08-02T19:30:44.495Z,20.86
2022-08-02T19:33:54.496Z,20.76
2022-08-02T19:36:09.439Z,20.71
2022-08-02T19:38:44.911Z,20.60
2022-08-02T19:41:17.641Z,20.58
2022-08-02T19:44:24.371Z,20.50
2022-08-02T19:46:48.954Z,20.34
2022-08-02T19:52:21.055Z,20.25
2022-08-02T19:54:57.893Z,20.24
2022-08-02T19:57:34.636Z,20.26
2022-08-02T20:00:10.589Z,20.14
2022-08-02T20:02:48.695Z,20.05
2022-08-02T20:05:24.197Z,19.92
2022-08-02T20:07:59.665Z,19.84
2022-08-02T20:10:33.035Z,19.76
2022-08-02T20:13:06.208Z,19.70
2022-08-02T20:15:55.884Z,19.75
2022-08-02T20:18:31.096Z,19.60
2022-08-02T20:21:03.637Z,19.57
2022-08-02T20:23:36.044Z,19.56
2022-08-02T20:26:09.007Z,19.52
2022-08-02T20:28:41.576Z,19.51
2022-08-02T20:31:14.727Z,19.52
2022-08-02T20:33:55.664Z,19.53
2022-08-02T20:36:28.808Z,19.51
2022-08-02T20:39:01.212Z,19.52
2022-08-02T20:41:36.443Z,19.40
2022-08-02T20:44:30.612Z,19.29
2022-08-02T20:47:04.668Z,19.14
2022-08-02T20:49:57.963Z,19.08
2022-08-02T20:52:30.727Z,18.95
2022-08-02T20:55:03.296Z,18.92
2022-08-02T20:57:48.810Z,18.89
2022-08-02T21:00:28.073Z,18.89
2022-08-02T21:03:02.713Z,18.81
2022-08-02T21:05:43.691Z,18.76
2022-08-02T21:08:27.939Z,18.71
2022-08-02T21:11:00.651Z,18.75
2022-08-02T21:13:46.486Z,18.59
2022-08-02T21:16:22.041Z,18.57
2022-08-02T21:18:59.949Z,18.58
2022-08-02T21:21:32.941Z,18.50
2022-08-02T21:24:05.618Z,18.50
2022-08-02T21:26:38.020Z,18.43
2022-08-02T21:29:10.442Z,18.46
2022-08-02T21:31:46.114Z,18.46
2022-08-02T21:34:27.265Z,18.41
2022-08-02T21:37:00.143Z,18.34
2022-08-02T21:39:42.281Z,18.32
2022-08-02T21:42:23.592Z,18.23
2022-08-02T21:44:56.137Z,18.10
2022-08-02T21:47:30.957Z,18.12
2022-08-02T21:50:13.294Z,18.10
2022-08-02T21:52:51.091Z,18.03
2022-08-02T21:56:00.991Z,18.03
2022-08-02T21:58:20.014Z,18.03
2022-08-02T22:00:52.567Z,18.06
2022-08-02T22:03:24.959Z,18.07
2022-08-02T22:06:02.709Z,18.03
2022-08-02T22:08:37.076Z,18.02
2022-08-02T22:11:13.467Z,17.95
2022-08-02T22:13:49.811Z,17.85
2022-08-02T22:16:22.498Z,17.78
2022-08-02T22:18:56.175Z,17.78
2022-08-02T22:21:33.582Z,17.73
2022-08-02T22:24:29.612Z,17.72
2022-08-02T22:27:02.801Z,17.70
2022-08-02T22:29:35.163Z,17.71
2022-08-02T22:32:08.090Z,17.64
2022-08-02T22:34:51.614Z,17.49
2022-08-02T22:40:18.062Z,17.51
2022-08-02T22:42:50.435Z,17.43
2022-08-02T22:45:22.812Z,17.40
2022-08-02T22:47:55.263Z,17.36
2022-08-02T22:50:28.183Z,17.25
2022-08-02T22:53:03.094Z,17.25
2022-08-02T22:55:35.691Z,17.17
2022-08-02T22:58:14.864Z,17.22
2022-08-02T22:59:05.572Z,20.26
2022-08-02T23:00:51.945Z,17.21
2022-08-02T23:03:24.414Z,17.16
2022-08-02T23:05:56.856Z,17.17
2022-08-02T23:08:31.728Z,17.13
2022-08-02T23:11:04.119Z,17.13
2022-08-02T23:13:36.535Z,17.07
2022-08-02T23:16:26.927Z,17.08
2022-08-02T23:19:17.514Z,16.89
2022-08-02T23:22:01.612Z,16.78
2022-08-02T23:24:36.276Z,16.86
2022-08-02T23:27:08.717Z,16.81
2022-08-02T23:29:41.460Z,16.78
2022-08-02T23:32:14.181Z,16.75
2022-08-02T23:34:46.859Z,16.69
2022-08-02T23:37:19.213Z,16.71
2022-08-02T23:39:52.831Z,16.72
2022-08-02T23:42:25.270Z,16.67
2022-08-02T23:44:57.779Z,16.62
2022-08-02T23:47:30.642Z,16.65
2022-08-02T23:50:03.118Z,16.66
2022-08-02T23:52:35.539Z,16.62
2022-08-02T23:55:09.367Z,16.62
2022-08-02T23:57:41.800Z,16.57
